マイアミ の空港の天気 - METARとTAF

マイアミ国際空港 ( KMIA / MIA ) - アメリカ合衆国 フロリダ州マイアミ
飛行場実況気象(Metar)
観測時間05/26 11:53 EDT (05/26 15:53 UTC)
風向・風速不定 2m/s
視程10km以上
天気現象
少しの雲 雲底高度 700m
全天の4割程度の雲 雲底高度 9140m
気温31.7℃
湿度59%
気圧1017.8hPa
METARKMIA 261553Z VRB03KT 10SM FEW023 SCT300 32/23 A3006 RMK AO2 SLP178 CB DSNT S MOV E T03170228
過去の天気等 Google飛行場航空写真 Wunderground天気予報

過去48時間のMETAR

飛行場予報(TAF)
発表時間: 5/26 11:03 EDT (5/26 15:03 UTC)
予報対象時間: 26日11時 EDT ~ 27日8時 EDT
風向・風速北北西 3m/s
視程10km以上
少しの雲 雲底高度 610m
26日13時 EDT から
風向・風速東 5m/s
視程10km以上
天気現象周辺でしゅう雨
全天の4割程度の雲 雲底高度 1,070m
26日20時 EDT から
風向・風速不定 2m/s
視程10km以上
少しの雲 雲底高度 910m
KMIA 261503Z 2615/2712 33005KT P6SM FEW020
FM261700 10010KT P6SM VCSH SCT035
FM270000 VRB03KT P6SM FEW030